Terminal Aerodrome Forecast
Issued by NWS Jacksonville, FL

Home | Current Version | Previous Version | Text Only | Print | Product List | Glossary On
Versions: 1 2 3 4 5 6 7 8 9 10 11 12 13 14 15 16 17 18 19 20 21 22 23 24 25 26 27 28
000
FTUS42 KJAX 231825 AAB
TAFJAX
TAF AMD
KJAX 231825Z 2318/2418 21008KT P6SM -RA BKN050 OVC060
     FM232300 21006KT P6SM SCT060 BKN150
     FM240300 VRB03KT P6SM FEW020 SCT100 SCT250
     FM241500 23007KT P6SM VCSH SCT040 SCT080 BKN250=

USA.gov is the U.S. government's official web portal to all federal, state and local government web resources and services.